Mount Laguna, CA

2:12 PM PDT on October 25, 2014 (GMT -0700)
Ramona | Change Station
CLOSE
Current Station
Airport
Location: Ramona,
Elevation: 1394 ft
Nearby Weather Stations

Elev 1394 ft 33.04 °N, 116.92 °W | Updated 19 minutes ago

Clear
Clear
81 °F
Feels Like 81 °F
N
14
Wind Variable Wind from West

Today
High -- | Low -- °F
--% Chance of Precip.
Yesterday
High -- | Low -- °F
Precip. -- in
6:57 AM 6:01 PM
Waxing Crescent, 4% visible
Pressure 30.00 in
Visibility 10.0 miles
Clouds Clear
Heat Index 81 °F
Dew Point 55 °F
Humidity 41%
Rainfall 0.00 in
Snow Depth Not available.
UV 5 out of 12
Pollen 3.90 out of 12
Air Quality Not available.
Flu Activity Sporadic
METAR KRNM 252053Z 27012KT 10SM CLR 27/13 A3003 RMK AO2 SLP157 T02720128 56016

More Conditions Fewer Conditions

Pressure 30.00 in
Visibility 10.0 miles
Clouds Clear
Heat Index 81 °F
Dew Point 55 °F
Humidity 41%
Rainfall 0.00 in
Snow Depth Not available.
UV 5 out of 12
Pollen 3.90 out of 12
Air Quality Not available.
Flu Activity Sporadic
METAR KRNM 252053Z 27012KT 10SM CLR 27/13 A3003 RMK AO2 SLP157 T02720128 56016

More Conditions Fewer Conditions

10-Day Weather Forecast

Almanac

Astronomy

Oct. 25, 2014 Rise Set
Actual Time 6:57 AM PDT 6:01 PM PDT
Civil Twilight 6:32 AM PDT 6:26 PM PDT
Nautical Twilight 6:03 AM PDT 6:55 PM PDT
Astronomical Twilight 5:34 AM PDT 7:24 PM PDT
Moon 8:36 AM PDT 7:32 PM PDT
Length of Visible Light 11h 53m
Length of Day
11h 03m
Tomorrow will be 1m 50s shorter.
Waxing Crescent, 4% of the Moon is Illuminated
Today
Waxing Crescent
Oct 30
First Quarter
Nov 6
Full
Nov 14
Last Quarter
Nov 22
New

Today's Extremes

State Highs State Lows

Community

WunderPhotos

Upload Photos

1,764,997 photos uploaded!

Nearby

Snow Depth

Station Depth Elevation
Virginia Lakes Ridge 0 in 9200 ft
Leavitt Lake 0 in 9400 ft
Leavitt Meadows 0 in 7200 ft
Sonora Pass 0 in 8800 ft
Summit Meadow 0 in 9122 ft

Earthquake Activity

City Distance Mag. Time & Date
Running Springs, California 103 miles 3.1 4:07 AM PDT
2014-10-25
Maneadero, Mexico 90 miles 2.5 7:44 AM PDT
2014-10-24
San Felipe, Mexico 111 miles 3.0 11:00 PM PDT
2014-10-23
Brea, California 112 miles 2.9 3:35 PM PDT
2014-10-23
Minimum magnitude displayed is 2.5.

Coastal Water Temperatures

Place Temperature
No Stations Reporting

Nearby Weather Stations